Time;durP1;ratioP1;P1;durP2;ratioP2;P2;SDS_P1;SDS_P2;PMS_P1;PMS_P2;Temp;Humidity;BMP_temperature;BMP_pressure;BME280_temperature;BME280_humidity;BME280_pressure;Samples;Min_cycle;Max_cycle;Signal;HPM_P1;HPM_P2
2021/05/16 00:00:24;;;;;;;6.63;2.60;;;11.10;99.90;;;;;;5075590;28;20560;-67
2021/05/16 00:02:51;;;;;;;8.50;4.00;;;11.10;99.90;;;;;;5074548;28;20963;-67
2021/05/16 00:05:19;;;;;;;6.50;2.33;;;11.10;99.90;;;;;;5074538;28;20905;-67
2021/05/16 00:07:44;;;;;;;7.13;3.43;;;11.10;99.90;;;;;;5074490;28;20878;-67
2021/05/16 00:10:11;;;;;;;6.23;2.60;;;11.10;99.90;;;;;;5074412;28;20489;-67
2021/05/16 00:12:37;;;;;;;8.80;3.30;;;11.10;99.90;;;;;;5074523;28;20173;-67
2021/05/16 00:15:05;;;;;;;11.47;3.60;;;11.10;99.90;;;;;;5074676;28;20396;-67
2021/05/16 00:17:31;;;;;;;8.97;2.77;;;11.10;99.90;;;;;;5083470;28;20272;-67
2021/05/16 00:19:57;;;;;;;6.00;2.97;;;11.10;99.90;;;;;;5094832;28;20427;-67
2021/05/16 00:22:22;;;;;;;9.07;3.17;;;11.20;99.90;;;;;;5094556;28;20189;-67
2021/05/16 00:24:48;;;;;;;8.73;3.30;;;11.10;99.90;;;;;;5093558;28;20252;-67
2021/05/16 00:27:14;;;;;;;7.87;3.03;;;11.10;99.90;;;;;;5094570;28;20179;-67
2021/05/16 00:29:39;;;;;;;10.53;2.83;;;11.10;99.90;;;;;;5094491;28;20209;-67
2021/05/16 00:32:05;;;;;;;8.33;3.40;;;11.10;99.90;;;;;;5094392;28;20253;-67
2021/05/16 00:34:31;;;;;;;8.67;3.60;;;11.00;99.90;;;;;;5093505;28;20175;-67
2021/05/16 00:36:56;;;;;;;12.67;3.60;;;11.00;99.90;;;;;;5094331;28;20234;-67
2021/05/16 00:39:22;;;;;;;10.47;3.13;;;10.90;99.90;;;;;;5094412;28;20239;-67
2021/05/16 00:41:48;;;;;;;10.40;3.43;;;10.90;99.90;;;;;;5094146;28;20197;-67
2021/05/16 00:44:16;;;;;;;10.03;3.93;;;10.90;99.90;;;;;;5094315;28;20161;-67
2021/05/16 00:46:42;;;;;;;11.80;3.50;;;10.90;99.90;;;;;;5094198;28;20164;-67
2021/05/16 00:49:07;;;;;;;12.00;3.30;;;10.80;99.90;;;;;;5094022;28;20782;-67
2021/05/16 00:51:33;;;;;;;9.57;3.47;;;10.90;99.90;;;;;;5093207;28;20442;-67
2021/05/16 00:53:58;;;;;;;10.27;3.50;;;10.80;99.90;;;;;;5093807;28;20226;-67
2021/05/16 00:56:24;;;;;;;7.43;2.70;;;10.90;99.90;;;;;;5093966;28;20165;-67
2021/05/16 00:58:49;;;;;;;7.10;4.07;;;10.90;99.90;;;;;;5093968;28;20219;-67
2021/05/16 01:01:17;;;;;;;11.60;4.00;;;10.90;99.90;;;;;;5093666;28;20699;-67
2021/05/16 01:03:42;;;;;;;9.67;3.17;;;10.90;99.90;;;;;;5093810;28;20234;-67
2021/05/16 01:06:08;;;;;;;17.03;4.03;;;10.90;99.90;;;;;;5087114;28;20841;-67
2021/05/16 01:08:34;;;;;;;8.50;4.03;;;10.90;99.90;;;;;;5073869;28;20186;-67
2021/05/16 01:11:00;;;;;;;7.73;3.17;;;11.00;99.90;;;;;;5073379;28;20620;-67
2021/05/16 01:13:26;;;;;;;9.57;3.07;;;11.00;99.90;;;;;;5073522;28;20207;-67
2021/05/16 01:15:53;;;;;;;8.40;3.40;;;10.90;99.90;;;;;;5073299;28;20391;-67
2021/05/16 01:18:18;;;;;;;7.73;3.00;;;10.90;99.90;;;;;;5073318;28;20446;-67
2021/05/16 01:20:47;;;;;;;9.67;2.90;;;10.90;99.90;;;;;;5073238;28;20420;-67
2021/05/16 01:23:17;;;;;;;11.10;4.20;;;11.00;99.90;;;;;;5073108;28;20184;-67
2021/05/16 01:25:45;;;;;;;10.37;3.33;;;10.90;99.90;;;;;;5073906;28;20939;-67
2021/05/16 01:28:13;;;;;;;9.97;3.77;;;10.90;99.90;;;;;;5073375;28;20404;-67
2021/05/16 01:30:39;;;;;;;10.40;3.50;;;10.90;99.90;;;;;;5073060;28;20476;-67
2021/05/16 01:33:06;;;;;;;7.90;3.13;;;10.90;99.90;;;;;;5073056;28;20398;-67
2021/05/16 01:35:32;;;;;;;11.50;3.13;;;10.90;99.90;;;;;;5073146;28;20395;-67
2021/05/16 01:37:58;;;;;;;10.00;3.30;;;10.90;99.90;;;;;;5072976;28;20394;-67
2021/05/16 01:40:25;;;;;;;8.10;2.90;;;10.90;99.90;;;;;;5073221;28;20411;-67
2021/05/16 01:42:53;;;;;;;7.77;3.30;;;10.90;99.90;;;;;;5073609;28;20965;-67
2021/05/16 01:45:24;;;;;;;16.47;4.20;;;10.90;99.90;;;;;;5073075;28;20400;-67
2021/05/16 01:47:50;;;;;;;10.27;2.70;;;10.80;99.90;;;;;;5072991;28;20428;-67
2021/05/16 01:50:18;;;;;;;6.83;2.60;;;10.70;99.90;;;;;;5072919;28;20462;-67
2021/05/16 01:52:45;;;;;;;6.27;2.73;;;10.70;99.90;;;;;;5072946;28;20411;-67
2021/05/16 01:55:12;;;;;;;10.17;3.40;;;10.70;99.90;;;;;;5072822;28;20861;-67
2021/05/16 01:57:39;;;;;;;7.77;3.27;;;10.60;99.90;;;;;;5072932;28;20402;-67
2021/05/16 02:00:08;;;;;;;7.70;3.93;;;10.60;99.90;;;;;;5073435;28;20442;-67
2021/05/16 02:02:34;;;;;;;9.43;3.07;;;10.50;99.90;;;;;;5072626;28;20467;-67
2021/05/16 02:05:00;;;;;;;10.83;3.33;;;10.50;99.90;;;;;;5072869;28;20492;-67
2021/05/16 02:07:27;;;;;;;11.57;4.00;;;10.50;99.90;;;;;;5073161;28;20473;-67
2021/05/16 02:09:53;;;;;;;15.43;3.53;;;10.60;99.90;;;;;;5072685;28;20417;-67
2021/05/16 02:12:19;;;;;;;13.03;4.90;;;10.50;99.90;;;;;;5073405;28;20402;-67
2021/05/16 02:14:45;;;;;;;9.60;4.00;;;10.50;99.90;;;;;;5072649;28;20877;-67
2021/05/16 02:17:13;;;;;;;9.33;3.10;;;10.50;99.90;;;;;;5087306;28;20425;-67
2021/05/16 02:19:40;;;;;;;11.53;3.83;;;10.50;99.90;;;;;;5092903;28;20404;-67
2021/05/16 02:22:06;;;;;;;12.43;3.13;;;10.40;99.90;;;;;;5092893;28;20473;-68
2021/05/16 02:24:32;;;;;;;8.87;3.57;;;10.40;99.90;;;;;;5093181;28;20399;-70
2021/05/16 02:27:00;;;;;;;7.20;3.33;;;10.40;99.90;;;;;;5093008;28;20789;-71
2021/05/16 02:29:28;;;;;;;10.70;3.20;;;10.40;99.90;;;;;;5092962;28;20182;-70
2021/05/16 02:31:54;;;;;;;5.23;2.77;;;10.40;99.90;;;;;;5092503;28;20906;-70
2021/05/16 02:34:20;;;;;;;12.33;3.53;;;10.40;99.90;;;;;;5092016;28;20421;-70
2021/05/16 02:36:45;;;;;;;12.83;3.17;;;10.40;99.90;;;;;;5092633;28;20398;-70
2021/05/16 02:39:11;;;;;;;23.73;3.87;;;10.30;99.90;;;;;;5092664;28;20626;-70
2021/05/16 02:41:37;;;;;;;8.30;3.40;;;10.30;99.90;;;;;;5092915;28;20196;-71
2021/05/16 02:44:03;;;;;;;9.43;3.17;;;10.30;99.90;;;;;;5092793;28;20495;-70
2021/05/16 02:46:28;;;;;;;8.00;3.40;;;10.30;99.90;;;;;;5092459;28;20219;-70
2021/05/16 02:48:54;;;;;;;13.77;3.80;;;10.30;99.90;;;;;;5094449;28;20399;-70
2021/05/16 02:51:20;;;;;;;10.37;3.63;;;10.30;99.90;;;;;;5095383;28;20671;-70
2021/05/16 02:53:47;;;;;;;10.10;4.03;;;10.30;99.90;;;;;;5096258;28;20166;-70
2021/05/16 02:56:13;;;;;;;14.97;4.77;;;10.30;99.90;;;;;;5096596;28;20443;-70
2021/05/16 02:58:39;;;;;;;13.70;3.73;;;10.30;99.90;;;;;;5096446;28;20929;-70
2021/05/16 03:01:05;;;;;;;15.43;4.30;;;10.30;99.90;;;;;;5096010;28;20390;-71
2021/05/16 03:03:30;;;;;;;9.23;3.70;;;10.30;99.90;;;;;;5096182;28;20905;-70
2021/05/16 03:05:56;;;;;;;12.40;3.80;;;10.30;99.90;;;;;;5091262;28;20180;-70
2021/05/16 03:08:22;;;;;;;11.80;3.73;;;10.30;99.90;;;;;;5076515;28;20597;-70
2021/05/16 03:10:48;;;;;;;9.30;2.90;;;10.40;99.90;;;;;;5075844;28;20179;-71
2021/05/16 03:13:13;;;;;;;12.20;3.83;;;10.40;99.90;;;;;;5076098;28;20395;-71
2021/05/16 03:15:39;;;;;;;8.63;3.00;;;10.30;99.90;;;;;;5075718;28;20573;-70
2021/05/16 03:18:04;;;;;;;10.30;4.37;;;10.30;99.90;;;;;;5075599;28;20164;-70
2021/05/16 03:20:30;;;;;;;13.43;4.30;;;10.20;99.90;;;;;;5075575;28;20165;-70
2021/05/16 03:22:56;;;;;;;9.77;3.20;;;10.10;99.90;;;;;;5075448;28;20270;-71
2021/05/16 03:25:21;;;;;;;9.63;4.47;;;10.10;99.90;;;;;;5076466;28;20180;-70
2021/05/16 03:27:47;;;;;;;16.80;4.17;;;10.00;99.90;;;;;;5075449;28;20194;-70
2021/05/16 03:30:13;;;;;;;9.50;4.00;;;9.90;99.90;;;;;;5075464;28;20166;-70
2021/05/16 03:32:40;;;;;;;9.30;4.07;;;9.90;99.90;;;;;;5075289;28;20522;-70
2021/05/16 03:35:08;;;;;;;12.63;4.43;;;9.90;99.90;;;;;;5075275;28;20909;-70
2021/05/16 03:37:34;;;;;;;11.03;4.30;;;9.80;99.90;;;;;;5075495;28;20406;-70
2021/05/16 03:40:00;;;;;;;13.27;5.30;;;9.80;99.90;;;;;;5075645;28;20421;-70
2021/05/16 03:42:25;;;;;;;13.33;4.40;;;9.70;99.90;;;;;;5075747;28;20241;-70
2021/05/16 03:44:53;;;;;;;9.20;3.30;;;9.70;99.90;;;;;;5075207;28;20156;-70
2021/05/16 03:47:19;;;;;;;8.20;3.20;;;9.60;99.90;;;;;;5074952;28;20170;-70
2021/05/16 03:49:45;;;;;;;10.70;4.00;;;9.60;99.90;;;;;;5074918;28;20408;-70
2021/05/16 03:52:10;;;;;;;15.23;4.03;;;9.60;99.90;;;;;;5074810;28;20410;-70
2021/05/16 03:54:36;;;;;;;5.43;4.20;;;9.60;99.90;;;;;;5075336;28;20529;-70
2021/05/16 03:57:02;;;;;;;10.57;4.30;;;9.50;99.90;;;;;;5075077;28;20783;-71
2021/05/16 03:59:28;;;;;;;6.60;3.87;;;9.50;99.90;;;;;;5075109;28;20462;-70
2021/05/16 04:01:54;;;;;;;9.70;4.20;;;9.50;99.90;;;;;;5074474;28;20552;-70
2021/05/16 04:04:19;;;;;;;11.03;4.37;;;9.50;99.90;;;;;;5074797;28;20150;-70
2021/05/16 04:06:45;;;;;;;7.43;3.83;;;9.50;99.90;;;;;;5074726;28;20171;-70
2021/05/16 04:09:10;;;;;;;11.03;4.37;;;9.50;99.90;;;;;;5076014;28;20179;-70
2021/05/16 04:11:36;;;;;;;7.40;3.87;;;9.50;99.90;;;;;;5074937;28;20170;-70
2021/05/16 04:14:02;;;;;;;9.43;4.20;;;9.50;99.90;;;;;;5074461;28;20162;-70
2021/05/16 04:16:29;;;;;;;9.97;4.10;;;9.50;99.90;;;;;;5091412;28;20210;-70
2021/05/16 04:18:54;;;;;;;5.20;4.40;;;9.50;99.90;;;;;;5094660;28;20901;-70
2021/05/16 04:21:20;;;;;;;12.80;4.73;;;9.50;99.90;;;;;;5094375;28;20441;-70
2021/05/16 04:23:45;;;;;;;10.10;3.73;;;9.50;99.90;;;;;;5096274;28;20167;-70
2021/05/16 04:26:11;;;;;;;7.87;3.10;;;9.50;99.90;;;;;;5094802;28;20155;-70
2021/05/16 04:28:36;;;;;;;18.77;3.60;;;9.50;99.90;;;;;;5094617;28;20158;-70
2021/05/16 04:31:02;;;;;;;3.93;3.07;;;9.60;99.90;;;;;;5094517;28;20162;-70
2021/05/16 04:33:27;;;;;;;10.07;3.50;;;9.60;99.90;;;;;;5093634;28;20175;-70
2021/05/16 04:35:55;;;;;;;6.60;3.77;;;9.60;99.90;;;;;;5094577;28;20147;-70
2021/05/16 04:38:21;;;;;;;8.50;4.20;;;9.60;99.90;;;;;;5095581;28;20147;-70
2021/05/16 04:40:47;;;;;;;9.57;4.40;;;9.70;99.90;;;;;;5094973;28;20442;-70
2021/05/16 04:43:13;;;;;;;8.50;3.03;;;9.70;99.90;;;;;;5094260;28;20553;-70
2021/05/16 04:45:39;;;;;;;7.10;3.20;;;9.70;99.90;;;;;;5094203;28;20393;-70
2021/05/16 04:48:06;;;;;;;6.90;3.73;;;9.70;99.90;;;;;;5094180;28;20388;-70
2021/05/16 04:50:32;;;;;;;8.20;3.33;;;9.70;99.90;;;;;;5093671;28;20412;-70
2021/05/16 04:52:57;;;;;;;10.70;3.80;;;9.70;99.90;;;;;;5095383;28;20747;-70
2021/05/16 04:55:23;;;;;;;9.93;3.90;;;9.70;99.90;;;;;;5094522;28;20498;-70
2021/05/16 04:57:48;;;;;;;5.97;3.23;;;9.70;99.90;;;;;;5094056;28;20211;-70
2021/05/16 05:00:16;;;;;;;6.83;3.30;;;9.70;99.90;;;;;;5093801;28;20192;-70
2021/05/16 05:02:42;;;;;;;8.60;3.40;;;9.70;99.90;;;;;;5093841;28;20210;-70
2021/05/16 05:05:09;;;;;;;5.17;3.07;;;9.70;99.90;;;;;;5094319;28;20943;-70
2021/05/16 05:07:35;;;;;;;13.10;3.90;;;9.80;99.90;;;;;;5076645;28;20425;-70
2021/05/16 05:10:00;;;;;;;6.30;3.23;;;9.80;99.90;;;;;;5073918;28;20401;-70
2021/05/16 05:12:26;;;;;;;7.30;3.43;;;9.80;99.90;;;;;;5073316;28;20225;-70
2021/05/16 05:14:51;;;;;;;5.20;3.27;;;9.90;99.90;;;;;;5073636;28;20518;-70
2021/05/16 05:17:17;;;;;;;8.57;3.97;;;10.00;99.90;;;;;;5073285;28;20254;-70
2021/05/16 05:19:43;;;;;;;7.60;3.90;;;10.10;99.90;;;;;;5073615;28;20238;-70
2021/05/16 05:22:08;;;;;;;13.20;4.47;;;10.30;99.90;;;;;;5074364;28;20197;-70
2021/05/16 05:24:34;;;;;;;7.10;3.53;;;10.40;99.90;;;;;;5074379;28;20176;-70
2021/05/16 05:26:59;;;;;;;7.87;3.67;;;10.60;99.90;;;;;;5073299;28;20162;-70
2021/05/16 05:29:25;;;;;;;10.40;3.50;;;10.70;99.90;;;;;;5073436;28;20157;-70
2021/05/16 05:31:50;;;;;;;7.50;3.40;;;10.80;99.90;;;;;;5073378;28;20157;-70
2021/05/16 05:34:16;;;;;;;5.60;2.90;;;10.80;99.90;;;;;;5073909;28;20164;-70
2021/05/16 05:36:42;;;;;;;8.97;3.73;;;10.80;99.90;;;;;;5074421;28;20166;-71
2021/05/16 05:39:07;;;;;;;6.50;3.17;;;10.80;99.90;;;;;;5073737;28;20174;-70
2021/05/16 05:41:34;;;;;;;9.63;4.10;;;10.90;99.90;;;;;;5073605;28;20224;-70
2021/05/16 05:44:00;;;;;;;10.57;3.67;;;11.00;99.90;;;;;;5073362;28;20400;-70
2021/05/16 05:46:26;;;;;;;12.63;3.70;;;11.10;99.90;;;;;;5073471;28;20398;-70
2021/05/16 05:48:51;;;;;;;8.70;4.00;;;11.20;99.90;;;;;;5074873;28;20476;-70
2021/05/16 05:51:17;;;;;;;7.70;3.53;;;11.30;99.90;;;;;;5074073;28;20211;-70
2021/05/16 05:53:43;;;;;;;12.60;3.60;;;11.50;99.90;;;;;;5073045;28;20229;-70
2021/05/16 05:56:08;;;;;;;10.17;3.73;;;11.60;99.90;;;;;;5073011;28;20224;-70
2021/05/16 05:58:35;;;;;;;9.13;3.73;;;11.70;99.90;;;;;;5073476;28;20203;-71
2021/05/16 06:01:02;;;;;;;11.33;4.27;;;11.80;99.90;;;;;;5074477;28;20142;-70
2021/05/16 06:03:28;;;;;;;9.77;3.97;;;12.00;99.90;;;;;;5074833;28;20386;-70
2021/05/16 06:05:54;;;;;;;8.27;3.00;;;12.20;99.90;;;;;;5073996;28;20752;-70
2021/05/16 06:08:20;;;;;;;7.87;3.50;;;12.30;99.90;;;;;;5072664;28;20378;-70
2021/05/16 06:10:45;;;;;;;10.40;4.20;;;12.40;99.90;;;;;;5072830;28;20211;-70
2021/05/16 06:13:12;;;;;;;5.90;2.90;;;12.50;99.90;;;;;;5073270;28;20205;-71
2021/05/16 06:15:37;;;;;;;6.67;2.80;;;12.70;99.90;;;;;;5091570;28;20183;-70
2021/05/16 06:18:03;;;;;;;9.20;3.13;;;12.80;99.90;;;;;;5093783;28;20392;-70
2021/05/16 06:20:29;;;;;;;10.27;3.63;;;12.90;99.90;;;;;;5093640;28;20151;-70
2021/05/16 06:22:55;;;;;;;7.67;3.10;;;13.10;99.90;;;;;;5092955;28;20445;-70
2021/05/16 06:25:21;;;;;;;5.30;3.10;;;13.30;99.90;;;;;;5096979;28;20445;-70
2021/05/16 06:27:47;;;;;;;9.80;3.70;;;13.50;99.90;;;;;;5097001;28;20182;-70
2021/05/16 06:30:13;;;;;;;9.50;4.13;;;13.50;99.90;;;;;;5097246;28;20424;-70
2021/05/16 06:32:42;;;;;;;9.10;3.80;;;13.70;99.90;;;;;;5096490;28;20178;-70
2021/05/16 06:35:08;;;;;;;8.20;3.47;;;13.80;99.90;;;;;;5097693;28;20388;-70
2021/05/16 06:37:34;;;;;;;6.67;2.83;;;13.90;99.90;;;;;;5096759;28;20431;-71
2021/05/16 06:40:00;;;;;;;8.80;3.97;;;13.90;99.90;;;;;;5096652;28;20392;-71
2021/05/16 06:42:26;;;;;;;9.63;3.10;;;13.90;99.90;;;;;;5096588;28;20444;-71
2021/05/16 06:44:52;;;;;;;8.30;3.40;;;13.80;99.90;;;;;;5096579;28;20169;-70
2021/05/16 06:47:20;;;;;;;7.50;3.00;;;13.80;99.90;;;;;;5097156;28;20385;-70
2021/05/16 06:49:50;;;;;;;8.00;3.40;;;13.70;99.90;;;;;;5096523;28;20171;-71
2021/05/16 06:52:16;;;;;;;7.53;3.70;;;13.70;99.90;;;;;;5096659;28;20400;-70
2021/05/16 06:54:41;;;;;;;12.23;4.07;;;13.50;99.90;;;;;;5096449;28;20396;-71
2021/05/16 06:57:07;;;;;;;11.50;3.50;;;13.50;99.90;;;;;;5096510;28;20197;-70
2021/05/16 06:59:32;;;;;;;8.63;3.80;;;13.40;99.90;;;;;;5100592;28;20205;-70
2021/05/16 07:01:58;;;;;;;9.00;3.73;;;13.30;99.90;;;;;;5096726;28;20194;-71
2021/05/16 07:04:23;;;;;;;9.77;4.27;;;13.20;99.90;;;;;;5096246;28;20496;-71
2021/05/16 07:06:49;;;;;;;9.67;4.13;;;13.00;99.90;;;;;;5088604;28;20179;-71
2021/05/16 07:09:14;;;;;;;10.97;4.90;;;12.80;99.90;;;;;;5096214;28;20147;-71
2021/05/16 07:11:40;;;;;;;10.13;4.10;;;12.70;99.90;;;;;;5096272;28;20163;-71
2021/05/16 07:14:06;;;;;;;10.50;3.90;;;12.50;99.90;;;;;;5096278;28;20165;-70
2021/05/16 07:16:31;;;;;;;7.03;3.97;;;12.40;99.90;;;;;;5096650;28;20339;-71
2021/05/16 07:18:57;;;;;;;8.00;4.07;;;12.20;99.90;;;;;;5097196;28;20245;-71
2021/05/16 07:21:23;;;;;;;9.47;5.00;;;12.10;99.90;;;;;;5095751;28;20160;-71
2021/05/16 07:23:49;;;;;;;14.20;4.90;;;12.00;99.90;;;;;;5095282;28;20174;-70
2021/05/16 07:26:14;;;;;;;11.37;4.57;;;12.00;99.90;;;;;;5095969;28;20446;-71
2021/05/16 07:28:40;;;;;;;10.70;4.87;;;12.00;99.90;;;;;;5095829;28;20151;-70
2021/05/16 07:31:06;;;;;;;9.70;4.13;;;12.00;99.90;;;;;;5096602;28;20174;-71
2021/05/16 07:33:31;;;;;;;11.13;4.53;;;12.00;99.90;;;;;;5096077;28;20163;-71
2021/05/16 07:35:58;;;;;;;10.23;3.80;;;12.00;99.90;;;;;;5095324;28;20200;-71
2021/05/16 07:38:24;;;;;;;14.30;4.87;;;11.90;99.90;;;;;;5095440;28;20144;-70
2021/05/16 07:40:49;;;;;;;13.37;4.37;;;12.00;99.90;;;;;;5095160;28;20428;-71
2021/05/16 07:43:15;;;;;;;6.97;3.30;;;12.00;99.90;;;;;;5095464;28;20324;-70
2021/05/16 07:45:41;;;;;;;7.37;3.20;;;12.00;99.90;;;;;;5096355;28;20529;-71
2021/05/16 07:48:07;;;;;;;11.20;3.60;;;12.10;99.90;;;;;;5095646;28;20427;-71
2021/05/16 07:50:33;;;;;;;11.83;3.77;;;12.10;99.90;;;;;;5095328;28;20151;-71
2021/05/16 07:52:58;;;;;;;12.13;3.67;;;12.10;99.90;;;;;;5095315;28;20917;-70
2021/05/16 07:55:24;;;;;;;7.90;3.87;;;12.10;99.90;;;;;;5094972;28;20628;-70
2021/05/16 07:57:49;;;;;;;9.10;3.50;;;12.10;99.90;;;;;;5094823;28;20647;-70
2021/05/16 08:00:15;;;;;;;8.40;3.40;;;12.10;99.90;;;;;;5095821;28;20256;-71
2021/05/16 08:02:42;;;;;;;8.53;3.10;;;12.20;99.90;;;;;;5095702;28;20267;-71
2021/05/16 08:05:10;;;;;;;11.83;3.90;;;12.60;99.90;;;;;;5088903;28;20976;-70
2021/05/16 08:07:35;;;;;;;11.13;4.10;;;12.90;99.90;;;;;;5075024;28;20389;-71
2021/05/16 08:10:01;;;;;;;10.33;4.00;;;13.20;99.90;;;;;;5074610;28;20421;-71
2021/05/16 08:12:26;;;;;;;12.50;4.83;;;13.40;99.90;;;;;;5075030;28;20159;-70
2021/05/16 08:14:52;;;;;;;8.90;3.10;;;13.60;99.90;;;;;;5075691;28;20182;-71
2021/05/16 08:17:18;;;;;;;7.67;3.33;;;13.90;99.90;;;;;;5074849;28;20176;-71
2021/05/16 08:19:43;;;;;;;8.00;3.50;;;14.20;99.90;;;;;;5074594;28;20160;-71
2021/05/16 08:22:10;;;;;;;7.77;3.60;;;14.40;99.90;;;;;;5074645;28;20201;-71
2021/05/16 08:24:37;;;;;;;12.00;3.70;;;14.40;99.90;;;;;;5074585;28;20615;-70
2021/05/16 08:27:06;;;;;;;11.53;4.50;;;14.10;99.90;;;;;;5074511;28;20740;-70
2021/05/16 08:29:32;;;;;;;7.30;3.50;;;14.00;99.90;;;;;;5075141;28;20510;-71
2021/05/16 08:31:57;;;;;;;9.10;3.80;;;13.90;99.90;;;;;;5074765;28;20407;-70
2021/05/16 08:34:23;;;;;;;10.87;3.33;;;13.90;99.90;;;;;;5074369;28;20952;-71
2021/05/16 08:36:48;;;;;;;13.03;4.07;;;14.00;99.90;;;;;;5074493;28;20160;-70
2021/05/16 08:39:14;;;;;;;11.43;4.03;;;14.10;99.90;;;;;;5074622;28;20170;-70
2021/05/16 08:41:39;;;;;;;16.80;4.10;;;14.50;99.90;;;;;;5074144;28;20179;-71
2021/05/16 08:44:05;;;;;;;11.60;4.37;;;15.00;99.90;;;;;;5074626;28;20178;-71
2021/05/16 08:46:31;;;;;;;6.63;3.40;;;15.20;99.90;;;;;;5073793;28;20159;-71
2021/05/16 08:48:57;;;;;;;6.30;3.03;;;15.40;99.90;;;;;;5073888;28;20178;-71
2021/05/16 08:51:23;;;;;;;9.90;2.90;;;15.90;99.90;;;;;;5074153;28;20181;-71
2021/05/16 08:53:48;;;;;;;6.20;2.40;;;17.30;99.90;;;;;;5073795;28;20169;-71
2021/05/16 08:56:14;;;;;;;5.00;2.77;;;18.80;99.90;;;;;;5074285;28;20397;-71
2021/05/16 08:58:40;;;;;;;6.90;3.23;;;19.40;99.90;;;;;;5074499;28;20278;-71
2021/05/16 09:01:23;;;;;;;8.50;3.17;;;19.40;99.90;;;;;;5073889;28;20179;-71
2021/05/16 09:03:50;;;;;;;6.60;2.63;;;20.60;99.90;;;;;;5076849;28;20171;-71
2021/05/16 09:06:16;;;;;;;4.73;2.23;;;22.60;96.90;;;;;;5093963;28;20948;-71
2021/05/16 09:08:43;;;;;;;2.53;1.57;;;24.70;89.10;;;;;;5094124;28;20396;-72
2021/05/16 09:11:09;;;;;;;3.60;2.37;;;25.20;75.30;;;;;;5093886;28;20385;-72
2021/05/16 09:13:40;;;;;;;4.37;2.20;;;25.60;70.20;;;;;;5094340;28;20946;-72
2021/05/16 09:26:56;;;;;;;5.07;2.30;;;21.30;82.30;;;;;;5111251;27;20510;-72
2021/05/16 09:32:02;;;;;;;2.13;1.50;;;21.40;87.50;;;;;;5111072;27;20510;-71
2021/05/16 09:34:29;;;;;;;3.80;1.60;;;21.70;86.10;;;;;;5110990;28;20400;-72
2021/05/16 09:36:55;;;;;;;5.43;1.73;;;22.30;85.00;;;;;;5110870;28;20393;-71
2021/05/16 09:39:25;;;;;;;1.63;1.20;;;22.30;82.90;;;;;;5094862;28;20450;-71
2021/05/16 09:41:59;;;;;;;2.30;1.30;;;22.10;82.00;;;;;;5090684;28;20812;-71
2021/05/16 09:44:31;;;;;;;4.00;1.40;;;21.50;86.40;;;;;;5090457;28;20393;-71
2021/05/16 09:49:51;;;;;;;4.33;1.83;;;21.60;84.80;;;;;;5131502;27;20553;-72
2021/05/16 09:57:36;;;;;;;3.10;1.57;;;21.40;84.10;;;;;;5132216;27;20504;-72
2021/05/16 10:00:04;;;;;;;4.43;1.90;;;22.00;78.60;;;;;;5131416;28;20502;-72
2021/05/16 10:02:31;;;;;;;5.50;2.20;;;21.90;74.30;;;;;;5131297;28;20409;-72
2021/05/16 10:05:01;;;;;;;4.17;2.10;;;21.60;72.30;;;;;;5117652;28;20426;-72
2021/05/16 10:07:28;;;;;;;6.10;2.30;;;21.40;79.80;;;;;;5110942;28;20492;-72
2021/05/16 10:09:54;;;;;;;6.90;2.10;;;21.10;90.20;;;;;;5110889;28;20389;-72
2021/05/16 10:12:22;;;;;;;7.90;2.70;;;20.60;95.70;;;;;;5119579;28;20411;-72
2021/05/16 10:14:52;;;;;;;8.37;4.60;;;19.90;96.90;;;;;;5131237;27;20404;-72
2021/05/16 10:17:20;;;;;;;7.33;2.87;;;19.20;98.90;;;;;;5130893;27;20472;-72
2021/05/16 10:19:46;;;;;;;2.80;2.00;;;18.80;99.30;;;;;;5130977;28;20391;-72
2021/05/16 10:22:15;;;;;;;3.43;2.00;;;18.50;99.90;;;;;;5131111;28;20399;-72
2021/05/16 10:27:28;;;;;;;3.17;1.53;;;18.30;99.90;;;;;;5131757;27;21043;-73
2021/05/16 10:30:04;;;;;;;2.50;1.50;;;17.90;99.90;;;;;;5118414;28;20505;-73
2021/05/16 10:32:35;;;;;;;3.50;1.40;;;17.50;99.90;;;;;;5110971;28;20853;-73
2021/05/16 10:35:06;;;;;;;4.77;1.43;;;17.40;99.90;;;;;;5110821;28;20391;-73
2021/05/16 10:43:01;;;;;;;7.53;2.23;;;16.90;99.90;;;;;;5110940;27;20498;-72
2021/05/16 10:45:34;;;;;;;6.57;3.00;;;16.90;99.90;;;;;;5110620;28;20389;-72
2021/05/16 10:48:17;;;;;;;4.70;2.67;;;17.10;99.90;;;;;;5090519;28;20385;-72
2021/05/16 10:50:59;;;;;;;3.73;2.23;;;17.20;99.90;;;;;;5090504;28;20393;-72
2021/05/16 10:53:30;;;;;;;5.03;2.10;;;17.60;99.90;;;;;;5090707;28;20443;-72
2021/05/16 10:56:17;;;;;;;4.70;2.37;;;17.70;99.90;;;;;;5090886;28;20386;-72
2021/05/16 10:58:45;;;;;;;6.10;2.57;;;17.80;99.90;;;;;;5090229;28;20417;-72
2021/05/16 11:01:15;;;;;;;6.23;2.20;;;18.00;99.90;;;;;;5090240;28;20452;-72
2021/05/16 11:09:16;;;;;;;5.43;2.60;;;17.60;99.90;;;;;;5111993;27;20518;-72
2021/05/16 11:11:52;;;;;;;11.30;3.00;;;17.40;99.90;;;;;;5110942;28;20433;-72
2021/05/16 11:14:22;;;;;;;5.80;2.47;;;17.30;99.90;;;;;;5110833;28;20178;-72
2021/05/16 11:19:28;;;;;;;5.60;2.70;;;17.00;99.90;;;;;;5110533;27;20555;-71
2021/05/16 11:21:54;;;;;;;7.83;2.00;;;16.80;99.90;;;;;;5070410;28;20918;-71
2021/05/16 11:24:44;;;;;;;6.80;2.90;;;16.60;99.90;;;;;;5071032;28;20496;-71
2021/05/16 11:27:18;;;;;;;6.37;3.47;;;16.40;99.90;;;;;;5069226;28;20382;-71
2021/05/16 11:29:44;;;;;;;4.87;2.30;;;16.30;99.90;;;;;;5070192;28;20390;-72
2021/05/16 11:32:10;;;;;;;5.30;2.60;;;16.40;99.90;;;;;;5070336;28;20923;-71
2021/05/16 11:34:35;;;;;;;4.10;2.40;;;16.30;99.90;;;;;;5070091;28;20523;-71
2021/05/16 11:37:18;;;;;;;4.20;2.00;;;16.30;99.90;;;;;;5076541;28;20185;-71
2021/05/16 11:39:45;;;;;;;4.70;1.90;;;16.40;99.90;;;;;;5091571;28;20174;-72
2021/05/16 11:42:10;;;;;;;7.40;1.83;;;16.60;99.90;;;;;;5090484;28;20523;-72
2021/05/16 11:44:36;;;;;;;6.80;2.20;;;16.60;99.90;;;;;;5090047;28;20484;-72
2021/05/16 11:47:02;;;;;;;4.60;2.20;;;16.60;99.90;;;;;;5089965;28;20227;-72
2021/05/16 11:49:30;;;;;;;6.03;2.50;;;16.60;99.90;;;;;;5090230;28;20151;-72
2021/05/16 11:51:58;;;;;;;6.37;2.57;;;16.50;99.90;;;;;;5091820;28;20151;-72
2021/05/16 11:54:26;;;;;;;6.03;2.23;;;16.40;99.90;;;;;;5091867;28;20409;-72
2021/05/16 11:56:52;;;;;;;4.23;1.90;;;16.30;99.90;;;;;;5089880;28;20397;-72
2021/05/16 11:59:18;;;;;;;5.33;2.20;;;16.30;99.90;;;;;;5089718;28;20517;-72
2021/05/16 12:01:46;;;;;;;5.17;2.03;;;16.30;99.90;;;;;;5089898;28;20854;-72
2021/05/16 12:04:16;;;;;;;4.87;2.40;;;16.30;99.90;;;;;;5089654;28;20265;-72
2021/05/16 12:09:20;;;;;;;6.53;1.83;;;16.30;99.90;;;;;;5111992;27;20513;-71
2021/05/16 12:11:48;;;;;;;4.57;1.83;;;16.40;99.90;;;;;;5099358;28;20412;-71
2021/05/16 12:14:16;;;;;;;3.43;1.83;;;16.70;99.90;;;;;;5090606;28;20749;-71
2021/05/16 12:22:05;;;;;;;4.70;2.40;;;17.20;99.90;;;;;;5132508;27;20500;-71
2021/05/16 12:24:37;;;;;;;5.10;2.17;;;17.50;99.90;;;;;;5131469;28;20416;-71
2021/05/16 12:27:05;;;;;;;4.77;1.90;;;17.50;98.70;;;;;;5131384;28;20380;-71
2021/05/16 12:29:31;;;;;;;5.30;2.67;;;17.50;98.30;;;;;;5113406;28;20931;-71
2021/05/16 12:31:57;;;;;;;5.00;2.43;;;17.50;97.70;;;;;;5110877;28;20383;-71
2021/05/16 12:34:24;;;;;;;3.73;2.17;;;17.50;98.20;;;;;;5111038;28;20389;-71
2021/05/16 12:39:48;;;;;;;4.17;1.60;;;17.60;98.70;;;;;;5131462;27;20508;-72
2021/05/16 12:50:38;;;;;;;3.17;1.63;;;18.20;97.40;;;;;;5091407;28;20511;-72
2021/05/16 12:53:25;;;;;;;3.27;1.97;;;18.50;96.10;;;;;;5090555;28;20397;-72
2021/05/16 12:56:13;;;;;;;3.73;1.87;;;18.70;95.90;;;;;;5089508;28;20385;-72
2021/05/16 12:58:53;;;;;;;6.33;2.50;;;18.80;93.70;;;;;;5089316;28;20432;-72
2021/05/16 13:01:22;;;;;;;4.63;1.80;;;18.90;93.30;;;;;;5092356;28;20399;-72
2021/05/16 13:03:57;;;;;;;6.43;2.03;;;18.90;92.50;;;;;;5082809;28;20431;-72
2021/05/16 13:06:29;;;;;;;8.07;2.17;;;18.90;93.00;;;;;;5090660;28;20396;-72
2021/05/16 13:08:55;;;;;;;3.50;2.17;;;18.90;93.50;;;;;;5090134;28;20502;-72
2021/05/16 13:11:20;;;;;;;4.70;2.00;;;18.90;93.70;;;;;;5090106;28;20390;-72
2021/05/16 13:13:47;;;;;;;4.67;2.10;;;18.90;92.60;;;;;;5089736;28;20162;-72
2021/05/16 13:16:14;;;;;;;4.07;1.90;;;18.90;92.80;;;;;;5092707;28;20218;-72
2021/05/16 13:21:30;;;;;;;5.20;2.07;;;18.90;91.30;;;;;;5131517;27;20866;-72
2021/05/16 13:26:53;;;;;;;4.37;1.63;;;19.00;88.30;;;;;;5131327;27;20507;-72
2021/05/16 13:29:21;;;;;;;3.23;1.80;;;19.10;90.90;;;;;;5130538;28;20427;-72
2021/05/16 13:31:46;;;;;;;5.43;1.97;;;19.10;90.20;;;;;;5132360;28;20794;-72
2021/05/16 13:34:17;;;;;;;4.20;2.00;;;19.10;89.50;;;;;;5132231;28;20424;-72
2021/05/16 13:36:43;;;;;;;3.83;1.70;;;19.00;90.20;;;;;;5120289;28;20181;-72
2021/05/16 13:39:09;;;;;;;5.07;1.60;;;19.00;87.70;;;;;;5110736;28;20440;-72
2021/05/16 13:41:34;;;;;;;4.20;2.00;;;19.00;91.70;;;;;;5110678;28;20159;-72
2021/05/16 13:44:00;;;;;;;5.40;1.60;;;19.10;91.90;;;;;;5115123;28;20246;-72
2021/05/16 13:46:25;;;;;;;2.00;1.30;;;19.10;90.90;;;;;;5111046;28;20189;-72